sensor_id;sensor_type;location;lat;lon;timestamp;temperature;humidity
17659;DHT22;8948;51.534;8.262;2023-04-29T00:00:27;13.40;80.20
17659;DHT22;8948;51.534;8.262;2023-04-29T00:05:28;13.40;79.20
17659;DHT22;8948;51.534;8.262;2023-04-29T00:10:28;13.30;78.30
17659;DHT22;8948;51.534;8.262;2023-04-29T00:15:29;13.10;77.80
17659;DHT22;8948;51.534;8.262;2023-04-29T00:20:29;13.10;78.10
17659;DHT22;8948;51.534;8.262;2023-04-29T00:25:30;13.00;78.00
17659;DHT22;8948;51.534;8.262;2023-04-29T00:30:31;12.90;78.00
17659;DHT22;8948;51.534;8.262;2023-04-29T00:35:32;12.90;77.80
17659;DHT22;8948;51.534;8.262;2023-04-29T00:40:34;12.80;77.30
17659;DHT22;8948;51.534;8.262;2023-04-29T00:45:35;12.80;76.60
17659;DHT22;8948;51.534;8.262;2023-04-29T00:50:35;12.70;76.10
17659;DHT22;8948;51.534;8.262;2023-04-29T00:55:36;12.60;76.40
17659;DHT22;8948;51.534;8.262;2023-04-29T01:00:37;12.60;76.40
17659;DHT22;8948;51.534;8.262;2023-04-29T01:05:38;12.50;76.70
17659;DHT22;8948;51.534;8.262;2023-04-29T01:10:44;12.50;77.00
17659;DHT22;8948;51.534;8.262;2023-04-29T01:16:02;12.40;77.50
17659;DHT22;8948;51.534;8.262;2023-04-29T01:21:03;12.50;78.00
17659;DHT22;8948;51.534;8.262;2023-04-29T01:26:04;12.30;78.10
17659;DHT22;8948;51.534;8.262;2023-04-29T01:31:10;12.30;78.30
17659;DHT22;8948;51.534;8.262;2023-04-29T01:36:35;12.30;78.60
17659;DHT22;8948;51.534;8.262;2023-04-29T01:41:44;12.30;79.00
17659;DHT22;8948;51.534;8.262;2023-04-29T01:46:53;12.20;79.00
17659;DHT22;8948;51.534;8.262;2023-04-29T01:51:54;12.30;78.70
17659;DHT22;8948;51.534;8.262;2023-04-29T01:56:55;12.20;79.00
17659;DHT22;8948;51.534;8.262;2023-04-29T02:01:56;12.20;79.30
17659;DHT22;8948;51.534;8.262;2023-04-29T02:06:58;12.10;79.20
17659;DHT22;8948;51.534;8.262;2023-04-29T02:11:58;12.00;79.80
17659;DHT22;8948;51.534;8.262;2023-04-29T02:17:00;12.00;80.10
17659;DHT22;8948;51.534;8.262;2023-04-29T02:22:00;12.10;79.80
17659;DHT22;8948;51.534;8.262;2023-04-29T02:27:01;12.00;80.00
17659;DHT22;8948;51.534;8.262;2023-04-29T02:32:05;12.00;79.60
17659;DHT22;8948;51.534;8.262;2023-04-29T02:37:06;11.90;79.90
17659;DHT22;8948;51.534;8.262;2023-04-29T02:42:06;11.80;80.10
17659;DHT22;8948;51.534;8.262;2023-04-29T02:47:07;11.70;80.50
17659;DHT22;8948;51.534;8.262;2023-04-29T02:52:07;11.70;80.50
17659;DHT22;8948;51.534;8.262;2023-04-29T02:57:08;11.70;80.40
17659;DHT22;8948;51.534;8.262;2023-04-29T03:02:09;11.70;80.30
17659;DHT22;8948;51.534;8.262;2023-04-29T03:07:10;11.70;80.50
17659;DHT22;8948;51.534;8.262;2023-04-29T03:12:10;11.70;80.10
17659;DHT22;8948;51.534;8.262;2023-04-29T03:17:11;11.70;80.30
17659;DHT22;8948;51.534;8.262;2023-04-29T03:22:11;11.70;79.20
17659;DHT22;8948;51.534;8.262;2023-04-29T03:27:12;11.50;79.50
17659;DHT22;8948;51.534;8.262;2023-04-29T03:32:13;11.50;79.00
17659;DHT22;8948;51.534;8.262;2023-04-29T03:37:14;11.40;79.50
17659;DHT22;8948;51.534;8.262;2023-04-29T03:42:15;11.30;79.60
17659;DHT22;8948;51.534;8.262;2023-04-29T03:47:16;11.30;79.70
17659;DHT22;8948;51.534;8.262;2023-04-29T03:52:16;11.10;79.90
17659;DHT22;8948;51.534;8.262;2023-04-29T03:57:17;11.10;79.90
17659;DHT22;8948;51.534;8.262;2023-04-29T04:02:17;11.00;79.70
17659;DHT22;8948;51.534;8.262;2023-04-29T04:07:20;11.10;79.80
17659;DHT22;8948;51.534;8.262;2023-04-29T04:12:20;11.00;80.00
17659;DHT22;8948;51.534;8.262;2023-04-29T04:17:21;11.00;79.60
17659;DHT22;8948;51.534;8.262;2023-04-29T04:22:21;11.10;80.00
17659;DHT22;8948;51.534;8.262;2023-04-29T04:27:22;11.00;79.60
17659;DHT22;8948;51.534;8.262;2023-04-29T04:32:23;11.00;80.00
17659;DHT22;8948;51.534;8.262;2023-04-29T04:37:23;11.00;80.00
17659;DHT22;8948;51.534;8.262;2023-04-29T04:42:24;10.90;79.80
17659;DHT22;8948;51.534;8.262;2023-04-29T04:47:24;11.10;79.10
17659;DHT22;8948;51.534;8.262;2023-04-29T04:52:25;11.20;79.40
17659;DHT22;8948;51.534;8.262;2023-04-29T04:57:26;11.10;79.30
17659;DHT22;8948;51.534;8.262;2023-04-29T05:02:26;11.00;80.20
17659;DHT22;8948;51.534;8.262;2023-04-29T05:07:27;10.90;80.10
17659;DHT22;8948;51.534;8.262;2023-04-29T05:12:28;11.00;80.30
17659;DHT22;8948;51.534;8.262;2023-04-29T05:17:30;10.90;80.90
17659;DHT22;8948;51.534;8.262;2023-04-29T05:22:30;10.80;81.10
17659;DHT22;8948;51.534;8.262;2023-04-29T05:27:31;10.80;81.60
17659;DHT22;8948;51.534;8.262;2023-04-29T05:32:31;10.70;81.80
17659;DHT22;8948;51.534;8.262;2023-04-29T05:37:32;10.90;81.10
17659;DHT22;8948;51.534;8.262;2023-04-29T05:42:33;10.80;81.20
17659;DHT22;8948;51.534;8.262;2023-04-29T05:47:34;10.90;80.90
17659;DHT22;8948;51.534;8.262;2023-04-29T05:52:34;10.90;80.70
17659;DHT22;8948;51.534;8.262;2023-04-29T05:57:35;11.00;80.50
17659;DHT22;8948;51.534;8.262;2023-04-29T06:02:36;11.00;79.90
17659;DHT22;8948;51.534;8.262;2023-04-29T06:07:39;10.90;80.30
17659;DHT22;8948;51.534;8.262;2023-04-29T06:12:40;10.90;80.30
17659;DHT22;8948;51.534;8.262;2023-04-29T06:17:41;10.90;80.60
17659;DHT22;8948;51.534;8.262;2023-04-29T06:22:42;10.90;80.30
17659;DHT22;8948;51.534;8.262;2023-04-29T06:27:42;10.90;80.40
17659;DHT22;8948;51.534;8.262;2023-04-29T06:32:43;11.00;80.20
17659;DHT22;8948;51.534;8.262;2023-04-29T06:37:44;10.90;80.30
17659;DHT22;8948;51.534;8.262;2023-04-29T06:42:44;11.00;80.50
17659;DHT22;8948;51.534;8.262;2023-04-29T06:47:46;10.90;80.40
17659;DHT22;8948;51.534;8.262;2023-04-29T06:52:46;11.00;80.20
17659;DHT22;8948;51.534;8.262;2023-04-29T06:57:47;11.00;80.10
17659;DHT22;8948;51.534;8.262;2023-04-29T07:02:48;11.00;80.50
17659;DHT22;8948;51.534;8.262;2023-04-29T07:07:48;11.00;80.50
17659;DHT22;8948;51.534;8.262;2023-04-29T07:12:49;10.90;80.80
17659;DHT22;8948;51.534;8.262;2023-04-29T07:17:49;10.90;80.70
17659;DHT22;8948;51.534;8.262;2023-04-29T07:22:50;10.90;81.10
17659;DHT22;8948;51.534;8.262;2023-04-29T07:27:50;11.00;80.80
17659;DHT22;8948;51.534;8.262;2023-04-29T07:32:51;11.00;80.60
17659;DHT22;8948;51.534;8.262;2023-04-29T07:37:51;11.10;80.50
17659;DHT22;8948;51.534;8.262;2023-04-29T07:42:52;11.00;80.30
17659;DHT22;8948;51.534;8.262;2023-04-29T07:47:52;11.10;80.40
17659;DHT22;8948;51.534;8.262;2023-04-29T07:52:53;11.10;80.20
17659;DHT22;8948;51.534;8.262;2023-04-29T07:57:55;11.10;80.30
17659;DHT22;8948;51.534;8.262;2023-04-29T08:02:56;11.10;80.10
17659;DHT22;8948;51.534;8.262;2023-04-29T08:07:56;11.20;79.80
17659;DHT22;8948;51.534;8.262;2023-04-29T08:12:57;11.20;80.30
17659;DHT22;8948;51.534;8.262;2023-04-29T08:17:58;11.30;80.00
17659;DHT22;8948;51.534;8.262;2023-04-29T08:22:59;11.30;79.70
17659;DHT22;8948;51.534;8.262;2023-04-29T08:28:00;11.20;79.90
17659;DHT22;8948;51.534;8.262;2023-04-29T08:33:00;11.20;79.90
17659;DHT22;8948;51.534;8.262;2023-04-29T08:38:01;11.20;79.80
17659;DHT22;8948;51.534;8.262;2023-04-29T08:43:02;11.30;79.80
17659;DHT22;8948;51.534;8.262;2023-04-29T08:48:05;11.40;79.70
17659;DHT22;8948;51.534;8.262;2023-04-29T08:53:07;11.50;79.50
17659;DHT22;8948;51.534;8.262;2023-04-29T08:58:08;11.50;79.30
17659;DHT22;8948;51.534;8.262;2023-04-29T09:03:33;11.50;79.20
17659;DHT22;8948;51.534;8.262;2023-04-29T09:08:36;11.50;79.50
17659;DHT22;8948;51.534;8.262;2023-04-29T09:13:37;11.60;79.30
17659;DHT22;8948;51.534;8.262;2023-04-29T09:18:48;11.70;79.50
17659;DHT22;8948;51.534;8.262;2023-04-29T09:23:54;11.80;78.60
17659;DHT22;8948;51.534;8.262;2023-04-29T09:29:08;11.90;78.30
17659;DHT22;8948;51.534;8.262;2023-04-29T09:34:10;12.00;78.20
17659;DHT22;8948;51.534;8.262;2023-04-29T09:39:16;12.10;78.10
17659;DHT22;8948;51.534;8.262;2023-04-29T09:44:18;12.20;77.60
17659;DHT22;8948;51.534;8.262;2023-04-29T09:49:24;12.30;76.70
17659;DHT22;8948;51.534;8.262;2023-04-29T09:54:27;12.50;76.90
17659;DHT22;8948;51.534;8.262;2023-04-29T09:59:27;12.80;76.20
17659;DHT22;8948;51.534;8.262;2023-04-29T10:04:29;12.70;76.00
17659;DHT22;8948;51.534;8.262;2023-04-29T10:09:32;12.50;75.60
17659;DHT22;8948;51.534;8.262;2023-04-29T10:20:05;12.80;75.20
17659;DHT22;8948;51.534;8.262;2023-04-29T10:25:06;13.20;73.50
17659;DHT22;8948;51.534;8.262;2023-04-29T10:30:13;13.30;72.70
17659;DHT22;8948;51.534;8.262;2023-04-29T10:35:17;13.20;72.60
17659;DHT22;8948;51.534;8.262;2023-04-29T10:40:26;13.10;73.90
17659;DHT22;8948;51.534;8.262;2023-04-29T10:45:29;13.10;73.20
17659;DHT22;8948;51.534;8.262;2023-04-29T10:55:53;13.50;70.80
17659;DHT22;8948;51.534;8.262;2023-04-29T11:00:54;13.60;71.60
17659;DHT22;8948;51.534;8.262;2023-04-29T11:06:07;13.50;70.30
17659;DHT22;8948;51.534;8.262;2023-04-29T11:11:08;13.40;70.20
17659;DHT22;8948;51.534;8.262;2023-04-29T11:16:10;13.20;70.00
17659;DHT22;8948;51.534;8.262;2023-04-29T11:21:11;13.00;71.00
17659;DHT22;8948;51.534;8.262;2023-04-29T11:26:12;13.00;71.30
17659;DHT22;8948;51.534;8.262;2023-04-29T11:31:12;13.20;70.90
17659;DHT22;8948;51.534;8.262;2023-04-29T11:36:13;13.60;70.10
17659;DHT22;8948;51.534;8.262;2023-04-29T11:41:14;13.80;68.50
17659;DHT22;8948;51.534;8.262;2023-04-29T11:46:15;13.60;69.00
17659;DHT22;8948;51.534;8.262;2023-04-29T11:51:17;13.60;69.20
17659;DHT22;8948;51.534;8.262;2023-04-29T11:56:21;13.90;69.30
17659;DHT22;8948;51.534;8.262;2023-04-29T12:01:25;14.10;68.10
17659;DHT22;8948;51.534;8.262;2023-04-29T12:06:27;14.30;67.60
17659;DHT22;8948;51.534;8.262;2023-04-29T12:11:28;14.50;67.00
17659;DHT22;8948;51.534;8.262;2023-04-29T12:16:29;14.40;66.40
17659;DHT22;8948;51.534;8.262;2023-04-29T12:21:32;14.30;66.60
17659;DHT22;8948;51.534;8.262;2023-04-29T12:26:33;14.00;66.20
17659;DHT22;8948;51.534;8.262;2023-04-29T12:31:33;13.80;67.60
17659;DHT22;8948;51.534;8.262;2023-04-29T12:36:34;13.60;67.60
17659;DHT22;8948;51.534;8.262;2023-04-29T12:41:40;13.50;68.50
17659;DHT22;8948;51.534;8.262;2023-04-29T12:46:41;13.50;69.20
17659;DHT22;8948;51.534;8.262;2023-04-29T12:51:42;13.50;69.30
17659;DHT22;8948;51.534;8.262;2023-04-29T12:56:43;13.60;68.90
17659;DHT22;8948;51.534;8.262;2023-04-29T13:01:43;13.70;67.40
17659;DHT22;8948;51.534;8.262;2023-04-29T13:06:44;13.90;68.20
17659;DHT22;8948;51.534;8.262;2023-04-29T13:11:45;13.90;67.00
17659;DHT22;8948;51.534;8.262;2023-04-29T13:16:46;14.00;66.80
17659;DHT22;8948;51.534;8.262;2023-04-29T13:21:47;14.10;66.30
17659;DHT22;8948;51.534;8.262;2023-04-29T13:26:47;14.10;65.90
17659;DHT22;8948;51.534;8.262;2023-04-29T13:31:49;14.00;66.50
17659;DHT22;8948;51.534;8.262;2023-04-29T13:36:49;13.90;66.50
17659;DHT22;8948;51.534;8.262;2023-04-29T13:41:50;14.00;66.60
17659;DHT22;8948;51.534;8.262;2023-04-29T13:46:51;13.80;66.70
17659;DHT22;8948;51.534;8.262;2023-04-29T13:51:52;13.70;66.60
17659;DHT22;8948;51.534;8.262;2023-04-29T13:56:52;13.80;67.10
17659;DHT22;8948;51.534;8.262;2023-04-29T14:01:53;14.00;67.70
17659;DHT22;8948;51.534;8.262;2023-04-29T14:06:54;14.00;66.70
17659;DHT22;8948;51.534;8.262;2023-04-29T14:11:55;14.10;66.60
17659;DHT22;8948;51.534;8.262;2023-04-29T14:16:56;14.10;66.00
17659;DHT22;8948;51.534;8.262;2023-04-29T14:21:57;14.30;66.30
17659;DHT22;8948;51.534;8.262;2023-04-29T14:26:57;14.40;65.40
17659;DHT22;8948;51.534;8.262;2023-04-29T14:31:58;14.60;64.90
17659;DHT22;8948;51.534;8.262;2023-04-29T14:36:58;14.50;65.20
17659;DHT22;8948;51.534;8.262;2023-04-29T14:41:59;14.50;64.10
17659;DHT22;8948;51.534;8.262;2023-04-29T14:47:01;14.40;64.10
17659;DHT22;8948;51.534;8.262;2023-04-29T14:52:02;14.50;64.90
17659;DHT22;8948;51.534;8.262;2023-04-29T14:57:03;14.50;64.50
17659;DHT22;8948;51.534;8.262;2023-04-29T15:02:03;14.40;64.10
17659;DHT22;8948;51.534;8.262;2023-04-29T15:07:04;14.40;64.60
17659;DHT22;8948;51.534;8.262;2023-04-29T15:12:05;14.30;64.80
17659;DHT22;8948;51.534;8.262;2023-04-29T15:17:05;14.20;65.20
17659;DHT22;8948;51.534;8.262;2023-04-29T15:22:06;14.20;65.60
17659;DHT22;8948;51.534;8.262;2023-04-29T15:27:07;14.20;65.70
17659;DHT22;8948;51.534;8.262;2023-04-29T15:32:08;14.20;65.30
17659;DHT22;8948;51.534;8.262;2023-04-29T15:37:09;14.30;64.60
17659;DHT22;8948;51.534;8.262;2023-04-29T15:42:10;14.40;64.80
17659;DHT22;8948;51.534;8.262;2023-04-29T15:47:10;14.40;64.70
17659;DHT22;8948;51.534;8.262;2023-04-29T15:52:11;14.40;64.20
17659;DHT22;8948;51.534;8.262;2023-04-29T15:57:11;14.50;63.50
17659;DHT22;8948;51.534;8.262;2023-04-29T16:02:12;14.40;63.10
17659;DHT22;8948;51.534;8.262;2023-04-29T16:07:14;14.40;63.20
17659;DHT22;8948;51.534;8.262;2023-04-29T16:12:15;14.60;63.40
17659;DHT22;8948;51.534;8.262;2023-04-29T16:17:16;14.70;63.90
17659;DHT22;8948;51.534;8.262;2023-04-29T16:22:16;14.70;63.10
17659;DHT22;8948;51.534;8.262;2023-04-29T16:27:17;14.80;62.10
17659;DHT22;8948;51.534;8.262;2023-04-29T16:32:17;14.70;61.40
17659;DHT22;8948;51.534;8.262;2023-04-29T16:37:18;14.60;61.30
17659;DHT22;8948;51.534;8.262;2023-04-29T16:42:19;14.50;62.50
17659;DHT22;8948;51.534;8.262;2023-04-29T16:47:19;14.50;63.20
17659;DHT22;8948;51.534;8.262;2023-04-29T16:52:20;14.40;63.50
17659;DHT22;8948;51.534;8.262;2023-04-29T16:57:21;14.40;63.90
17659;DHT22;8948;51.534;8.262;2023-04-29T17:02:25;14.30;64.00
17659;DHT22;8948;51.534;8.262;2023-04-29T17:07:26;14.20;62.80
17659;DHT22;8948;51.534;8.262;2023-04-29T17:12:26;14.30;61.40
17659;DHT22;8948;51.534;8.262;2023-04-29T17:17:27;14.30;61.90
17659;DHT22;8948;51.534;8.262;2023-04-29T17:22:28;14.30;62.10
17659;DHT22;8948;51.534;8.262;2023-04-29T17:27:28;14.30;62.10
17659;DHT22;8948;51.534;8.262;2023-04-29T17:32:29;14.30;63.00
17659;DHT22;8948;51.534;8.262;2023-04-29T17:37:29;14.20;63.40
17659;DHT22;8948;51.534;8.262;2023-04-29T17:42:30;14.20;63.50
17659;DHT22;8948;51.534;8.262;2023-04-29T17:47:31;14.20;63.60
17659;DHT22;8948;51.534;8.262;2023-04-29T17:52:31;14.20;64.30
17659;DHT22;8948;51.534;8.262;2023-04-29T17:57:32;14.20;64.20
17659;DHT22;8948;51.534;8.262;2023-04-29T18:02:33;14.20;64.80
17659;DHT22;8948;51.534;8.262;2023-04-29T18:07:34;14.10;65.20
17659;DHT22;8948;51.534;8.262;2023-04-29T18:12:34;14.00;65.60
17659;DHT22;8948;51.534;8.262;2023-04-29T18:17:35;14.00;66.30
17659;DHT22;8948;51.534;8.262;2023-04-29T18:22:35;13.80;66.70
17659;DHT22;8948;51.534;8.262;2023-04-29T18:27:36;13.70;67.30
17659;DHT22;8948;51.534;8.262;2023-04-29T18:32:37;13.70;67.60
17659;DHT22;8948;51.534;8.262;2023-04-29T18:37:37;13.80;67.50
17659;DHT22;8948;51.534;8.262;2023-04-29T18:42:38;13.60;67.90
17659;DHT22;8948;51.534;8.262;2023-04-29T18:47:39;13.50;68.20
17659;DHT22;8948;51.534;8.262;2023-04-29T18:52:40;13.50;68.40
17659;DHT22;8948;51.534;8.262;2023-04-29T18:57:40;13.40;68.70
17659;DHT22;8948;51.534;8.262;2023-04-29T19:02:41;13.50;68.80
17659;DHT22;8948;51.534;8.262;2023-04-29T19:07:42;13.50;68.80
17659;DHT22;8948;51.534;8.262;2023-04-29T19:12:42;13.40;69.00
17659;DHT22;8948;51.534;8.262;2023-04-29T19:17:43;13.30;69.40
17659;DHT22;8948;51.534;8.262;2023-04-29T19:22:43;13.20;69.10
17659;DHT22;8948;51.534;8.262;2023-04-29T19:27:44;13.30;68.90
17659;DHT22;8948;51.534;8.262;2023-04-29T19:32:45;13.30;68.60
17659;DHT22;8948;51.534;8.262;2023-04-29T19:37:46;13.30;69.00
17659;DHT22;8948;51.534;8.262;2023-04-29T19:42:46;13.30;69.00
17659;DHT22;8948;51.534;8.262;2023-04-29T19:47:47;13.20;69.20
17659;DHT22;8948;51.534;8.262;2023-04-29T19:52:49;13.10;69.40
17659;DHT22;8948;51.534;8.262;2023-04-29T19:57:49;13.00;69.70
17659;DHT22;8948;51.534;8.262;2023-04-29T20:02:53;13.00;70.10
17659;DHT22;8948;51.534;8.262;2023-04-29T20:07:54;12.90;69.60
17659;DHT22;8948;51.534;8.262;2023-04-29T20:12:54;12.90;69.40
17659;DHT22;8948;51.534;8.262;2023-04-29T20:17:55;12.90;69.90
17659;DHT22;8948;51.534;8.262;2023-04-29T20:22:56;12.70;70.20
17659;DHT22;8948;51.534;8.262;2023-04-29T20:27:59;12.70;70.20
17659;DHT22;8948;51.534;8.262;2023-04-29T20:33:00;12.60;69.50
17659;DHT22;8948;51.534;8.262;2023-04-29T20:38:01;12.60;70.10
17659;DHT22;8948;51.534;8.262;2023-04-29T20:43:01;12.50;70.10
17659;DHT22;8948;51.534;8.262;2023-04-29T20:48:02;12.50;70.10
17659;DHT22;8948;51.534;8.262;2023-04-29T20:53:03;12.40;70.50
17659;DHT22;8948;51.534;8.262;2023-04-29T20:58:03;12.30;70.40
17659;DHT22;8948;51.534;8.262;2023-04-29T21:03:04;12.20;70.50
17659;DHT22;8948;51.534;8.262;2023-04-29T21:08:04;12.10;70.60
17659;DHT22;8948;51.534;8.262;2023-04-29T21:13:05;12.00;70.50
17659;DHT22;8948;51.534;8.262;2023-04-29T21:18:06;11.90;70.50
17659;DHT22;8948;51.534;8.262;2023-04-29T21:23:06;12.00;70.20
17659;DHT22;8948;51.534;8.262;2023-04-29T21:28:07;11.90;69.60
17659;DHT22;8948;51.534;8.262;2023-04-29T21:33:07;11.80;69.20
17659;DHT22;8948;51.534;8.262;2023-04-29T21:38:08;11.70;69.20
17659;DHT22;8948;51.534;8.262;2023-04-29T21:43:09;11.60;69.00
17659;DHT22;8948;51.534;8.262;2023-04-29T21:48:13;11.50;68.70
17659;DHT22;8948;51.534;8.262;2023-04-29T21:53:14;11.40;68.90
17659;DHT22;8948;51.534;8.262;2023-04-29T21:58:15;11.20;69.00
17659;DHT22;8948;51.534;8.262;2023-04-29T22:03:16;11.10;69.40
17659;DHT22;8948;51.534;8.262;2023-04-29T22:08:16;11.00;69.50
17659;DHT22;8948;51.534;8.262;2023-04-29T22:13:17;10.90;69.50
17659;DHT22;8948;51.534;8.262;2023-04-29T22:18:18;10.80;69.50
17659;DHT22;8948;51.534;8.262;2023-04-29T22:23:18;10.70;68.80
17659;DHT22;8948;51.534;8.262;2023-04-29T22:28:20;10.60;68.10
17659;DHT22;8948;51.534;8.262;2023-04-29T22:33:20;10.40;68.90
17659;DHT22;8948;51.534;8.262;2023-04-29T22:38:21;10.40;68.70
17659;DHT22;8948;51.534;8.262;2023-04-29T22:43:22;10.30;68.90
17659;DHT22;8948;51.534;8.262;2023-04-29T22:48:23;10.30;68.50
17659;DHT22;8948;51.534;8.262;2023-04-29T22:53:24;10.10;69.30
17659;DHT22;8948;51.534;8.262;2023-04-29T22:58:25;10.10;69.20
17659;DHT22;8948;51.534;8.262;2023-04-29T23:03:26;10.10;68.90
17659;DHT22;8948;51.534;8.262;2023-04-29T23:08:27;10.00;69.00
17659;DHT22;8948;51.534;8.262;2023-04-29T23:13:27;10.00;69.50
17659;DHT22;8948;51.534;8.262;2023-04-29T23:18:28;10.10;69.10
17659;DHT22;8948;51.534;8.262;2023-04-29T23:23:29;10.00;69.10
17659;DHT22;8948;51.534;8.262;2023-04-29T23:28:29;10.00;68.50
17659;DHT22;8948;51.534;8.262;2023-04-29T23:33:30;10.00;68.80
17659;DHT22;8948;51.534;8.262;2023-04-29T23:38:30;10.00;68.90
17659;DHT22;8948;51.534;8.262;2023-04-29T23:43:31;9.90;68.70
17659;DHT22;8948;51.534;8.262;2023-04-29T23:48:32;9.90;68.50
17659;DHT22;8948;51.534;8.262;2023-04-29T23:53:32;9.80;68.70
17659;DHT22;8948;51.534;8.262;2023-04-29T23:58:33;9.70;68.20
